createdAt,value
2022-11-06T00:00:08.302Z,29.73
2022-11-06T00:03:07.166Z,28.10
2022-11-06T00:05:58.691Z,34.70
2022-11-06T00:08:30.059Z,21.65
2022-11-06T00:10:59.257Z,18.50
2022-11-06T00:13:29.470Z,19.90
2022-11-06T00:16:02.875Z,14.43
2022-11-06T00:18:32.280Z,14.05
2022-11-06T00:21:08.671Z,18.20
2022-11-06T00:23:38.065Z,15.85
2022-11-06T00:26:08.385Z,13.55
2022-11-06T00:28:38.232Z,11.60
2022-11-06T00:31:09.340Z,9.00
2022-11-06T00:33:38.886Z,12.60
2022-11-06T00:36:11.963Z,12.75
2022-11-06T00:38:41.410Z,14.45
2022-11-06T00:41:13.319Z,13.93
2022-11-06T00:43:43.596Z,13.65
2022-11-06T00:46:14.682Z,27.02
2022-11-06T00:48:44.449Z,25.13
2022-11-06T00:51:16.657Z,21.77
2022-11-06T00:53:46.835Z,29.05
2022-11-06T00:56:17.746Z,28.50
2022-11-06T00:58:48.264Z,23.90
2022-11-06T01:01:19.954Z,27.30
2022-11-06T01:03:53.058Z,34.20
2022-11-06T01:06:25.545Z,36.03
2022-11-06T01:08:55.657Z,35.33
2022-11-06T01:11:41.821Z,40.53
2022-11-06T01:14:21.105Z,32.60
2022-11-06T01:16:50.309Z,33.60
2022-11-06T01:19:21.411Z,30.98
2022-11-06T01:21:54.425Z,31.15
2022-11-06T01:24:25.614Z,28.85
2022-11-06T01:29:44.678Z,35.25
2022-11-06T01:32:13.923Z,24.42
2022-11-06T01:34:43.378Z,26.75
2022-11-06T01:37:14.989Z,27.42
2022-11-06T01:39:44.793Z,27.63
2022-11-06T01:42:16.101Z,26.85
2022-11-06T01:45:25.190Z,22.98
2022-11-06T01:47:54.477Z,26.27
2022-11-06T01:50:24.034Z,18.30
2022-11-06T01:52:54.651Z,22.00
2022-11-06T01:55:30.022Z,20.08
2022-11-06T01:58:02.020Z,17.05
2022-11-06T02:00:32.723Z,16.85
2022-11-06T02:03:02.706Z,26.55
2022-11-06T02:05:32.285Z,24.88
2022-11-06T02:08:04.445Z,25.02
2022-11-06T02:10:35.416Z,17.92
2022-11-06T02:13:18.970Z,16.08
2022-11-06T02:15:52.926Z,20.77
2022-11-06T02:18:57.018Z,16.65
2022-11-06T02:21:59.400Z,15.18
2022-11-06T02:24:52.569Z,14.30
2022-11-06T02:27:27.933Z,14.13
2022-11-06T02:30:03.687Z,12.70
2022-11-06T02:32:40.312Z,18.23
2022-11-06T02:35:19.485Z,12.00
2022-11-06T02:37:53.794Z,16.45
2022-11-06T02:40:25.225Z,14.90
2022-11-06T02:43:00.058Z,11.50
2022-11-06T02:45:32.072Z,14.43
2022-11-06T02:48:03.056Z,11.60
2022-11-06T02:50:36.728Z,11.15
2022-11-06T02:53:12.321Z,16.27
2022-11-06T02:55:45.397Z,9.55
2022-11-06T02:58:20.504Z,10.68
2022-11-06T03:00:55.957Z,12.77
2022-11-06T03:05:59.745Z,6.28
2022-11-06T03:08:34.660Z,26.23
2022-11-06T03:11:10.848Z,17.00
2022-11-06T03:13:50.975Z,7.57
2022-11-06T03:16:30.070Z,9.65
2022-11-06T03:19:05.515Z,8.88
2022-11-06T03:21:44.582Z,10.38
2022-11-06T03:24:18.183Z,8.63
2022-11-06T03:26:51.213Z,10.77
2022-11-06T03:29:29.214Z,10.05
2022-11-06T03:36:59.059Z,10.93
2022-11-06T03:39:31.521Z,8.55
2022-11-06T03:42:05.577Z,5.78
2022-11-06T03:44:40.710Z,7.25
2022-11-06T03:47:14.444Z,12.13
2022-11-06T03:49:49.178Z,9.18
2022-11-06T03:52:24.076Z,6.35
2022-11-06T03:54:59.843Z,6.68
2022-11-06T03:57:35.126Z,8.25
2022-11-06T04:00:09.154Z,9.18
2022-11-06T04:02:50.400Z,9.00
2022-11-06T04:05:23.033Z,9.02
2022-11-06T04:08:14.805Z,10.43
2022-11-06T04:11:06.887Z,7.97
2022-11-06T04:13:56.803Z,10.52
2022-11-06T04:16:32.054Z,5.45
2022-11-06T04:19:02.442Z,7.43
2022-11-06T04:21:53.951Z,11.98
2022-11-06T04:24:52.061Z,13.00
2022-11-06T04:27:41.622Z,7.63
2022-11-06T04:30:12.888Z,6.10
2022-11-06T04:32:59.815Z,9.00
2022-11-06T04:35:38.405Z,8.73
2022-11-06T04:38:14.171Z,5.40
2022-11-06T04:40:52.127Z,7.55
2022-11-06T04:43:31.357Z,7.57
2022-11-06T04:46:03.548Z,8.48
2022-11-06T04:48:34.588Z,11.13
2022-11-06T04:51:08.504Z,17.35
2022-11-06T04:53:38.702Z,9.77
2022-11-06T04:56:11.585Z,19.02
2022-11-06T04:58:40.714Z,13.68
2022-11-06T05:01:11.156Z,10.85
2022-11-06T05:03:41.758Z,9.70
2022-11-06T05:06:12.149Z,9.73
2022-11-06T05:08:41.306Z,8.80
2022-11-06T05:11:11.102Z,11.43
2022-11-06T05:13:40.251Z,7.03
2022-11-06T05:16:09.974Z,9.82
2022-11-06T05:18:40.417Z,7.95
2022-11-06T05:21:28.172Z,10.65
2022-11-06T05:23:57.277Z,7.30
2022-11-06T05:26:26.725Z,6.70
2022-11-06T05:28:56.830Z,7.28
2022-11-06T05:31:26.982Z,13.80
2022-11-06T05:33:57.612Z,6.90
2022-11-06T05:36:26.980Z,9.15
2022-11-06T05:38:56.108Z,10.43
2022-11-06T05:41:25.443Z,8.55
2022-11-06T05:43:55.078Z,10.95
2022-11-06T05:46:47.188Z,9.85
2022-11-06T05:49:15.097Z,8.40
2022-11-06T05:51:44.527Z,8.52
2022-11-06T05:54:13.809Z,8.18
2022-11-06T05:56:43.199Z,11.93
2022-11-06T05:59:13.117Z,8.63
2022-11-06T06:01:42.610Z,7.13
2022-11-06T06:04:13.317Z,8.32
2022-11-06T06:06:43.210Z,11.15
2022-11-06T06:09:12.315Z,8.57
2022-11-06T06:11:41.631Z,8.45
2022-11-06T06:14:10.802Z,9.75
2022-11-06T06:16:40.189Z,10.73
2022-11-06T06:19:09.243Z,16.10
2022-11-06T06:21:40.248Z,9.93
2022-11-06T06:24:09.786Z,15.23
2022-11-06T06:26:39.297Z,12.48
2022-11-06T06:29:08.349Z,11.27
2022-11-06T06:31:37.708Z,14.57
2022-11-06T06:34:06.780Z,12.20
2022-11-06T06:36:36.288Z,12.45
2022-11-06T06:39:06.972Z,12.55
2022-11-06T06:41:36.565Z,13.65
2022-11-06T06:44:05.944Z,15.93
2022-11-06T06:46:35.240Z,17.08
2022-11-06T06:49:04.899Z,13.00
2022-11-06T06:51:34.607Z,11.05
2022-11-06T06:54:05.219Z,18.35
2022-11-06T06:56:34.637Z,15.82
2022-11-06T06:59:03.837Z,12.63
2022-11-06T07:01:33.343Z,14.93
2022-11-06T07:04:04.480Z,22.27
2022-11-06T07:06:34.704Z,14.40
2022-11-06T07:09:05.241Z,22.13
2022-11-06T07:11:36.164Z,21.30
2022-11-06T07:14:05.282Z,17.55
2022-11-06T07:16:34.609Z,19.63
2022-11-06T07:19:03.781Z,22.38
2022-11-06T07:21:33.164Z,19.77
2022-11-06T07:24:02.284Z,19.27
2022-11-06T07:26:33.114Z,11.85
2022-11-06T07:29:02.400Z,15.80
2022-11-06T07:31:33.115Z,18.23
2022-11-06T07:34:02.370Z,17.10
2022-11-06T07:36:32.886Z,23.30
2022-11-06T07:39:01.884Z,15.90
2022-11-06T07:41:33.181Z,19.52
2022-11-06T07:44:02.319Z,25.25
2022-11-06T07:46:32.075Z,15.95
2022-11-06T07:49:01.541Z,14.85
2022-11-06T07:51:31.059Z,13.20
2022-11-06T07:54:00.193Z,12.48
2022-11-06T07:56:29.752Z,13.30
2022-11-06T07:59:00.383Z,10.98
2022-11-06T08:01:30.101Z,11.40
2022-11-06T08:03:59.598Z,11.65
2022-11-06T08:06:28.935Z,14.32
2022-11-06T08:08:59.225Z,16.98
2022-11-06T08:11:28.790Z,14.00
2022-11-06T08:14:00.657Z,14.60
2022-11-06T08:16:30.450Z,11.07
2022-11-06T08:18:59.617Z,11.60
2022-11-06T08:21:29.108Z,15.75
2022-11-06T08:23:58.276Z,13.05
2022-11-06T08:26:28.007Z,11.32
2022-11-06T08:28:57.774Z,11.27
2022-11-06T08:31:28.607Z,11.70
2022-11-06T08:33:57.661Z,14.13
2022-11-06T08:36:27.207Z,9.38
2022-11-06T08:38:56.174Z,10.63
2022-11-06T08:41:25.596Z,11.77
2022-11-06T08:43:54.813Z,10.20
2022-11-06T08:46:24.316Z,10.05
2022-11-06T08:48:55.229Z,11.13
2022-11-06T08:51:24.851Z,13.02
2022-11-06T08:53:54.143Z,13.73
2022-11-06T08:56:23.906Z,14.32
2022-11-06T08:58:55.700Z,9.60
2022-11-06T09:01:25.388Z,11.30
2022-11-06T09:03:56.296Z,10.85
2022-11-06T09:06:26.546Z,11.38
2022-11-06T09:08:55.624Z,14.30
2022-11-06T09:11:25.183Z,8.95
2022-11-06T09:13:54.370Z,9.75
2022-11-06T09:16:24.670Z,9.65
2022-11-06T09:18:57.596Z,11.80
2022-11-06T09:21:27.021Z,7.05
2022-11-06T09:23:56.188Z,8.77
2022-11-06T09:26:25.607Z,8.60
2022-11-06T09:28:54.703Z,10.68
2022-11-06T09:31:24.194Z,10.70
2022-11-06T09:33:53.351Z,9.38
2022-11-06T09:36:24.288Z,10.63
2022-11-06T09:38:53.529Z,7.57
2022-11-06T09:41:34.683Z,7.57
2022-11-06T09:44:22.649Z,5.72
2022-11-06T09:46:52.974Z,6.68
2022-11-06T09:49:27.230Z,7.40
2022-11-06T09:52:03.221Z,6.45
2022-11-06T09:54:38.826Z,8.30
2022-11-06T09:57:17.828Z,7.72
2022-11-06T09:59:48.186Z,8.38
2022-11-06T10:02:27.130Z,9.32
2022-11-06T10:05:05.209Z,10.65
2022-11-06T10:07:39.223Z,8.82
2022-11-06T10:10:15.571Z,7.78
2022-11-06T10:13:02.362Z,6.93
2022-11-06T10:15:35.682Z,9.98
2022-11-06T10:18:16.789Z,9.20
2022-11-06T10:20:52.685Z,7.22
2022-11-06T10:23:40.171Z,5.80
2022-11-06T10:26:16.153Z,5.28
2022-11-06T10:29:08.795Z,5.32
2022-11-06T10:31:46.996Z,4.60
2022-11-06T10:34:19.385Z,5.88
2022-11-06T10:36:53.004Z,5.53
2022-11-06T10:39:28.138Z,5.75
2022-11-06T10:42:05.129Z,6.28
2022-11-06T10:44:39.188Z,5.63
2022-11-06T10:47:16.823Z,5.30
2022-11-06T10:49:50.063Z,4.90
2022-11-06T10:52:47.176Z,5.05
2022-11-06T10:55:54.775Z,5.28
2022-11-06T10:58:28.264Z,4.03
2022-11-06T11:01:01.405Z,4.53
2022-11-06T11:03:33.965Z,3.67
2022-11-06T11:06:05.066Z,5.95
2022-11-06T11:08:36.325Z,6.03
2022-11-06T11:11:17.076Z,5.72
2022-11-06T11:13:47.935Z,4.55
2022-11-06T11:16:19.426Z,3.95
2022-11-06T11:18:49.538Z,3.63
2022-11-06T11:21:28.258Z,4.57
2022-11-06T11:24:09.534Z,5.03
2022-11-06T11:26:44.834Z,5.50
2022-11-06T11:29:18.330Z,3.28
2022-11-06T11:31:51.609Z,3.22
2022-11-06T11:34:24.634Z,3.22
2022-11-06T11:37:01.375Z,3.72
2022-11-06T11:39:33.945Z,5.78
2022-11-06T11:42:25.262Z,4.40
2022-11-06T11:45:18.347Z,8.27
2022-11-06T11:47:49.511Z,5.55
2022-11-06T11:50:36.597Z,4.45
2022-11-06T11:53:17.870Z,3.85
2022-11-06T11:55:49.507Z,5.88
2022-11-06T11:58:28.093Z,3.22
2022-11-06T12:00:59.316Z,5.95
2022-11-06T12:03:33.509Z,6.78
2022-11-06T12:06:11.514Z,7.47
2022-11-06T12:08:46.338Z,6.00
2022-11-06T12:11:20.730Z,5.00
2022-11-06T12:14:22.782Z,5.30
2022-11-06T12:16:58.166Z,4.55
2022-11-06T12:19:31.774Z,6.45
2022-11-06T12:22:07.762Z,4.85
2022-11-06T12:24:44.303Z,5.15
2022-11-06T12:27:17.395Z,3.60
2022-11-06T12:29:50.880Z,6.47
2022-11-06T12:32:34.661Z,4.73
2022-11-06T12:35:13.884Z,5.45
2022-11-06T12:37:54.202Z,3.72
2022-11-06T12:40:26.681Z,4.55
2022-11-06T12:43:12.014Z,5.65
2022-11-06T12:46:03.796Z,5.00
2022-11-06T12:48:57.567Z,4.22
2022-11-06T12:51:38.991Z,5.60
2022-11-06T12:54:30.008Z,7.38
2022-11-06T12:57:07.583Z,4.53
2022-11-06T12:59:48.161Z,4.95
2022-11-06T13:02:35.544Z,6.85
2022-11-06T13:05:17.215Z,5.53
2022-11-06T13:08:17.375Z,4.43
2022-11-06T13:10:58.571Z,6.50
2022-11-06T13:13:43.305Z,6.10
2022-11-06T13:16:23.370Z,5.05
2022-11-06T13:18:57.398Z,9.32
2022-11-06T13:21:39.236Z,10.45
2022-11-06T13:24:14.747Z,10.90
2022-11-06T13:26:49.105Z,11.20
2022-11-06T13:29:20.915Z,10.00
2022-11-06T13:31:58.055Z,18.10
2022-11-06T13:34:31.957Z,13.32
2022-11-06T13:37:03.149Z,11.63
2022-11-06T13:39:38.498Z,7.30
2022-11-06T13:42:16.300Z,7.63
2022-11-06T13:44:46.531Z,8.95
2022-11-06T13:47:22.040Z,7.28
2022-11-06T13:50:02.982Z,9.88
2022-11-06T13:52:40.381Z,8.35
2022-11-06T13:55:20.399Z,7.43
2022-11-06T13:58:21.445Z,8.05
2022-11-06T14:01:03.183Z,11.63
2022-11-06T14:04:23.039Z,12.73
2022-11-06T14:06:56.598Z,7.25
2022-11-06T14:09:32.379Z,7.20
2022-11-06T14:12:08.902Z,9.80
2022-11-06T14:14:40.638Z,14.00
2022-11-06T14:17:22.022Z,9.40
2022-11-06T14:20:08.145Z,10.35
2022-11-06T14:22:39.039Z,9.00
2022-11-06T14:25:44.413Z,12.32
2022-11-06T14:28:31.257Z,7.82
2022-11-06T14:31:20.852Z,13.48
2022-11-06T14:34:02.489Z,15.07
2022-11-06T14:36:37.331Z,13.18
2022-11-06T14:39:14.494Z,10.85
2022-11-06T14:41:59.693Z,9.82
2022-11-06T14:44:47.082Z,10.82
2022-11-06T14:47:43.489Z,10.90
2022-11-06T14:50:27.674Z,10.68
2022-11-06T14:53:01.485Z,8.88
2022-11-06T14:55:33.714Z,10.48
2022-11-06T14:58:19.973Z,11.02
2022-11-06T15:03:26.929Z,9.18
2022-11-06T15:06:01.654Z,8.80
2022-11-06T15:08:54.132Z,10.40
2022-11-06T15:11:51.678Z,8.63
2022-11-06T15:15:00.726Z,13.68
2022-11-06T15:17:36.473Z,18.85
2022-11-06T15:20:25.817Z,28.52
2022-11-06T15:23:12.893Z,20.58
2022-11-06T15:25:58.132Z,20.05
2022-11-06T15:28:33.245Z,22.90
2022-11-06T15:31:06.758Z,17.75
2022-11-06T15:33:51.639Z,20.90
2022-11-06T15:36:24.963Z,20.15
2022-11-06T15:38:54.102Z,20.73
2022-11-06T15:41:26.085Z,20.05
2022-11-06T15:43:57.209Z,21.15
2022-11-06T15:46:28.747Z,15.73
2022-11-06T15:49:24.928Z,21.25
2022-11-06T15:51:57.414Z,26.10
2022-11-06T15:54:36.124Z,24.85
2022-11-06T15:57:14.804Z,23.70
2022-11-06T15:59:44.063Z,21.52
2022-11-06T16:02:19.909Z,21.35
2022-11-06T16:04:51.434Z,20.63
2022-11-06T16:07:21.813Z,18.02
2022-11-06T16:09:52.798Z,17.52
2022-11-06T16:12:22.479Z,33.97
2022-11-06T16:14:51.502Z,26.85
2022-11-06T16:17:26.828Z,44.50
2022-11-06T16:20:00.246Z,37.25
2022-11-06T16:22:32.456Z,25.38
2022-11-06T16:25:04.089Z,28.10
2022-11-06T16:27:36.362Z,35.22
2022-11-06T16:30:06.840Z,18.23
2022-11-06T16:32:42.390Z,29.13
2022-11-06T16:35:37.392Z,21.73
2022-11-06T16:38:42.531Z,24.42
2022-11-06T16:41:34.374Z,273.92
2022-11-06T16:44:26.241Z,134.77
2022-11-06T16:47:20.362Z,105.78
2022-11-06T16:49:53.948Z,66.95
2022-11-06T16:52:29.509Z,52.67
2022-11-06T16:55:02.532Z,34.13
2022-11-06T16:57:34.990Z,37.20
2022-11-06T17:00:06.986Z,40.47
2022-11-06T17:02:39.210Z,46.00
2022-11-06T17:08:09.464Z,60.38
2022-11-06T17:10:41.175Z,55.40
2022-11-06T17:13:18.906Z,46.28
2022-11-06T17:15:52.998Z,47.83
2022-11-06T17:18:23.758Z,34.22
2022-11-06T17:20:57.139Z,34.47
2022-11-06T17:23:29.134Z,33.97
2022-11-06T17:26:02.421Z,32.88
2022-11-06T17:28:32.558Z,33.67
2022-11-06T17:31:02.034Z,33.83
2022-11-06T17:33:31.104Z,30.20
2022-11-06T17:36:00.632Z,39.17
2022-11-06T17:38:33.107Z,37.47
2022-11-06T17:41:02.510Z,33.22
2022-11-06T17:43:31.594Z,31.45
2022-11-06T17:46:02.209Z,28.67
2022-11-06T17:48:31.405Z,69.15
2022-11-06T17:51:18.508Z,49.05
2022-11-06T17:53:50.458Z,42.17
2022-11-06T17:56:20.631Z,32.10
2022-11-06T17:58:49.825Z,30.02
2022-11-06T18:01:19.758Z,33.17
2022-11-06T18:03:49.079Z,32.05
2022-11-06T18:06:19.057Z,28.90
2022-11-06T18:08:49.895Z,26.35
2022-11-06T18:11:19.387Z,21.20
2022-11-06T18:13:48.550Z,33.00
2022-11-06T18:16:19.157Z,25.98
2022-11-06T18:18:49.025Z,32.00
2022-11-06T18:21:18.481Z,21.42
2022-11-06T18:23:49.122Z,26.85
2022-11-06T18:26:18.837Z,29.83
2022-11-06T18:28:48.166Z,36.65
2022-11-06T18:31:18.289Z,35.10
2022-11-06T18:33:47.557Z,29.63
2022-11-06T18:36:17.953Z,28.75
2022-11-06T18:38:48.659Z,27.23
2022-11-06T18:41:20.554Z,24.63
2022-11-06T18:43:50.159Z,23.75
2022-11-06T18:46:20.807Z,30.35
2022-11-06T18:48:50.256Z,26.85
2022-11-06T18:51:33.877Z,29.63
2022-11-06T18:54:07.638Z,39.47
2022-11-06T18:56:38.948Z,26.60
2022-11-06T18:59:09.783Z,27.50
2022-11-06T19:01:40.375Z,23.10
2022-11-06T19:04:10.992Z,29.40
2022-11-06T19:06:41.180Z,28.17
2022-11-06T19:09:11.799Z,23.48
2022-11-06T19:11:41.275Z,23.90
2022-11-06T19:14:10.615Z,26.98
2022-11-06T19:16:40.052Z,25.65
2022-11-06T19:19:09.339Z,25.83
2022-11-06T19:21:40.510Z,24.55
2022-11-06T19:24:14.499Z,29.73
2022-11-06T19:26:44.086Z,25.42
2022-11-06T19:29:13.260Z,30.67
2022-11-06T19:31:43.574Z,24.48
2022-11-06T19:34:15.081Z,25.95
2022-11-06T19:36:44.565Z,31.35
2022-11-06T19:39:15.311Z,22.92
2022-11-06T19:41:44.903Z,39.38
2022-11-06T19:44:14.541Z,73.82
2022-11-06T19:46:43.898Z,69.75
2022-11-06T19:49:13.126Z,78.50
2022-11-06T19:51:42.607Z,73.05
2022-11-06T19:54:12.239Z,71.50
2022-11-06T19:57:27.504Z,47.30
2022-11-06T19:59:32.579Z,51.75
2022-11-06T20:02:02.721Z,40.95
2022-11-06T20:04:32.062Z,28.27
2022-11-06T20:07:01.780Z,25.02
2022-11-06T20:09:31.031Z,33.72
2022-11-06T20:12:02.016Z,30.17
2022-11-06T20:14:31.579Z,32.20
2022-11-06T20:17:01.018Z,26.77
2022-11-06T20:19:30.238Z,32.25
2022-11-06T20:21:59.602Z,25.92
2022-11-06T20:24:28.684Z,33.65
2022-11-06T20:26:58.418Z,28.20
2022-11-06T20:29:29.016Z,29.45
2022-11-06T20:31:58.328Z,36.25
2022-11-06T20:34:27.470Z,38.67
2022-11-06T20:36:56.910Z,36.97
2022-11-06T20:39:26.019Z,32.00
2022-11-06T20:41:55.392Z,31.45
2022-11-06T20:44:24.534Z,30.20
2022-11-06T20:46:55.479Z,25.80
2022-11-06T20:49:24.585Z,28.77
2022-11-06T20:52:13.314Z,30.20
2022-11-06T20:54:47.102Z,26.17
2022-11-06T20:57:17.846Z,29.23
2022-11-06T20:59:47.204Z,33.47
2022-11-06T21:02:18.136Z,34.17
2022-11-06T21:04:47.509Z,34.05
2022-11-06T21:07:17.039Z,30.92
2022-11-06T21:09:46.301Z,25.27
2022-11-06T21:12:15.892Z,31.13
2022-11-06T21:14:44.912Z,34.72
2022-11-06T21:17:14.288Z,30.13
2022-11-06T21:19:44.948Z,25.42
2022-11-06T21:22:15.224Z,30.70
2022-11-06T21:24:44.636Z,31.77
2022-11-06T21:27:14.111Z,25.25
2022-11-06T21:29:43.324Z,25.33
2022-11-06T21:32:12.761Z,29.83
2022-11-06T21:34:43.198Z,23.42
2022-11-06T21:37:12.710Z,30.77
2022-11-06T21:39:41.882Z,26.65
2022-11-06T21:42:11.281Z,26.17
2022-11-06T21:44:40.468Z,29.35
2022-11-06T21:47:09.834Z,26.80
2022-11-06T21:49:39.176Z,28.60
2022-11-06T21:52:29.432Z,25.38
2022-11-06T21:55:16.098Z,30.13
2022-11-06T21:57:45.612Z,29.02
2022-11-06T22:00:15.625Z,27.20
2022-11-06T22:02:45.227Z,24.30
2022-11-06T22:05:14.595Z,25.40
2022-11-06T22:07:45.497Z,23.00
2022-11-06T22:10:15.095Z,26.38
2022-11-06T22:12:44.455Z,29.80
2022-11-06T22:15:14.782Z,26.70
2022-11-06T22:17:44.273Z,31.15
2022-11-06T22:20:13.731Z,31.92
2022-11-06T22:22:44.551Z,27.67
2022-11-06T22:25:14.137Z,33.17
2022-11-06T22:27:44.692Z,29.08
2022-11-06T22:30:14.978Z,28.40
2022-11-06T22:32:44.630Z,25.25
2022-11-06T22:35:13.783Z,27.98
2022-11-06T22:37:44.727Z,24.98
2022-11-06T22:40:14.065Z,28.45
2022-11-06T22:42:47.183Z,26.85
2022-11-06T22:45:18.766Z,25.88
2022-11-06T22:47:48.589Z,27.30
2022-11-06T22:50:17.975Z,24.30
2022-11-06T22:52:48.813Z,24.83
2022-11-06T22:55:18.496Z,24.25
2022-11-06T22:57:48.085Z,28.80
2022-11-06T23:00:18.555Z,25.13
2022-11-06T23:02:48.164Z,23.33
2022-11-06T23:05:17.630Z,24.83
2022-11-06T23:07:48.542Z,26.23
2022-11-06T23:10:28.726Z,22.33
2022-11-06T23:12:58.696Z,23.75
2022-11-06T23:15:27.948Z,20.65
2022-11-06T23:17:57.788Z,19.20
2022-11-06T23:20:27.200Z,26.25
2022-11-06T23:22:58.433Z,21.30
2022-11-06T23:25:27.974Z,16.65
2022-11-06T23:27:59.778Z,25.05
2022-11-06T23:30:30.119Z,22.45
2022-11-06T23:33:00.054Z,25.58
2022-11-06T23:35:32.583Z,23.25
2022-11-06T23:38:03.977Z,22.70
2022-11-06T23:40:33.187Z,29.33
2022-11-06T23:43:02.549Z,24.75
2022-11-06T23:45:48.876Z,19.83
2022-11-06T23:48:18.731Z,29.02
2022-11-06T23:50:47.987Z,32.50
2022-11-06T23:53:18.809Z,31.73
2022-11-06T23:55:47.923Z,28.38
2022-11-06T23:58:17.354Z,28.15
